createdAt,value
2023-04-14T00:02:16.293Z,10.60
2023-04-14T00:06:27.314Z,10.70
2023-04-14T00:10:37.912Z,10.60
2023-04-14T00:14:46.993Z,10.60
2023-04-14T00:18:56.141Z,10.70
2023-04-14T00:23:05.182Z,10.70
2023-04-14T00:27:16.041Z,10.80
2023-04-14T00:31:25.091Z,10.70
2023-04-14T00:35:34.359Z,10.60
2023-04-14T00:39:43.370Z,10.50
2023-04-14T00:43:56.498Z,10.50
2023-04-14T00:48:05.756Z,10.40
2023-04-14T00:52:14.963Z,10.50
2023-04-14T00:56:24.358Z,10.60
2023-04-14T01:00:36.485Z,10.70
2023-04-14T01:04:53.816Z,10.80
2023-04-14T01:09:04.359Z,10.80
2023-04-14T01:13:25.364Z,10.90
2023-04-14T01:17:42.215Z,10.90
2023-04-14T01:21:56.654Z,10.90
2023-04-14T01:26:30.364Z,10.80
2023-04-14T01:30:56.176Z,11.00
2023-04-14T01:35:13.431Z,11.00
2023-04-14T01:39:26.837Z,11.00
2023-04-14T01:43:40.042Z,10.90
2023-04-14T01:47:50.705Z,10.90
2023-04-14T01:52:02.802Z,10.90
2023-04-14T01:56:14.496Z,10.90
2023-04-14T02:00:24.875Z,10.90
2023-04-14T02:04:35.977Z,10.90
2023-04-14T02:08:47.477Z,10.80
2023-04-14T02:12:59.653Z,10.80
2023-04-14T02:17:11.135Z,10.70
2023-04-14T02:21:22.250Z,10.70
2023-04-14T02:25:35.734Z,10.70
2023-04-14T02:29:48.929Z,10.60
2023-04-14T02:33:59.630Z,10.60
2023-04-14T02:38:15.810Z,10.70
2023-04-14T02:42:28.950Z,10.80
2023-04-14T02:46:42.358Z,10.80
2023-04-14T02:50:53.821Z,10.90
2023-04-14T02:55:05.505Z,11.10
2023-04-14T02:59:16.573Z,11.20
2023-04-14T03:03:27.010Z,11.20
2023-04-14T03:07:37.722Z,11.40
2023-04-14T03:11:48.136Z,11.50
2023-04-14T03:16:00.053Z,11.60
2023-04-14T03:20:10.293Z,11.70
2023-04-14T03:24:24.677Z,11.80
2023-04-14T03:28:38.042Z,11.90
2023-04-14T03:32:51.769Z,12.00
2023-04-14T03:37:02.171Z,12.00
2023-04-14T03:41:13.681Z,12.00
2023-04-14T03:45:24.190Z,12.10
2023-04-14T03:49:39.369Z,12.10
2023-04-14T03:53:49.596Z,12.10
2023-04-14T03:58:00.274Z,12.00
2023-04-14T04:02:10.689Z,12.10
2023-04-14T04:06:21.736Z,12.10
2023-04-14T04:10:34.493Z,12.10
2023-04-14T04:14:43.613Z,12.10
2023-04-14T04:18:53.453Z,12.20
2023-04-14T04:23:05.778Z,12.20
2023-04-14T04:27:27.125Z,12.20
2023-04-14T04:31:37.448Z,12.20
2023-04-14T04:35:47.790Z,12.20
2023-04-14T04:40:00.334Z,12.20
2023-04-14T04:44:10.055Z,12.20
2023-04-14T04:48:19.113Z,12.20
2023-04-14T04:52:28.089Z,12.20
2023-04-14T04:56:38.750Z,12.20
2023-04-14T05:00:47.717Z,12.20
2023-04-14T05:04:57.767Z,12.20
2023-04-14T05:09:07.062Z,12.20
2023-04-14T05:13:17.776Z,12.20
2023-04-14T05:17:27.460Z,12.20
2023-04-14T05:21:36.786Z,12.20
2023-04-14T05:25:47.507Z,12.20
2023-04-14T05:29:58.292Z,12.20
2023-04-14T05:34:07.339Z,12.30
2023-04-14T05:38:16.438Z,12.30
2023-04-14T05:42:25.521Z,12.30
2023-04-14T05:46:36.255Z,12.20
2023-04-14T05:50:45.447Z,12.00
2023-04-14T05:54:54.536Z,11.90
2023-04-14T05:59:03.605Z,11.80
2023-04-14T06:03:14.265Z,11.70
2023-04-14T06:07:23.379Z,11.70
2023-04-14T06:11:32.575Z,11.60
2023-04-14T06:15:41.762Z,11.70
2023-04-14T06:19:53.898Z,11.80
2023-04-14T06:24:03.045Z,11.70
2023-04-14T06:28:12.059Z,11.70
2023-04-14T06:32:21.540Z,11.70
2023-04-14T06:36:32.223Z,11.70
2023-04-14T06:40:41.267Z,11.80
2023-04-14T06:44:50.262Z,12.00
2023-04-14T06:48:59.710Z,12.00
2023-04-14T06:53:10.518Z,12.10
2023-04-14T06:57:20.046Z,12.00
2023-04-14T07:01:29.891Z,12.10
2023-04-14T07:05:38.896Z,12.10
2023-04-14T07:09:49.418Z,12.20
2023-04-14T07:13:58.684Z,12.30
2023-04-14T07:18:08.300Z,12.30
2023-04-14T07:22:20.111Z,12.30
2023-04-14T07:26:31.067Z,12.30
2023-04-14T07:30:40.614Z,12.40
2023-04-14T07:34:50.792Z,12.40
2023-04-14T07:39:00.238Z,12.40
2023-04-14T07:43:11.188Z,12.50
2023-04-14T07:47:20.210Z,12.50
2023-04-14T07:51:29.799Z,12.50
2023-04-14T07:55:38.912Z,12.50
2023-04-14T07:59:49.476Z,12.70
2023-04-14T08:03:58.777Z,12.70
2023-04-14T08:08:08.218Z,12.70
2023-04-14T08:12:17.373Z,12.80
2023-04-14T08:16:28.227Z,13.00
2023-04-14T08:20:38.291Z,13.10
2023-04-14T08:24:47.322Z,13.00
2023-04-14T08:28:56.549Z,13.00
2023-04-14T08:33:07.335Z,12.90
2023-04-14T08:37:17.211Z,12.90
2023-04-14T08:41:26.749Z,12.90
2023-04-14T08:45:35.925Z,12.90
2023-04-14T08:49:51.933Z,12.90
2023-04-14T08:54:02.033Z,12.90
2023-04-14T08:58:12.083Z,12.90
2023-04-14T09:02:22.091Z,12.90
2023-04-14T09:06:33.188Z,12.90
2023-04-14T09:10:43.084Z,12.90
2023-04-14T09:14:54.126Z,12.70
2023-04-14T09:19:07.051Z,12.50
2023-04-14T09:23:18.685Z,12.20
2023-04-14T09:27:28.905Z,12.00
2023-04-14T09:31:39.313Z,12.00
2023-04-14T09:35:50.745Z,12.00
2023-04-14T09:40:01.794Z,12.10
2023-04-14T09:44:10.930Z,12.30
2023-04-14T09:48:20.115Z,12.50
2023-04-14T09:52:40.674Z,12.80
2023-04-14T09:56:51.774Z,13.00
2023-04-14T10:01:01.128Z,13.20
2023-04-14T10:05:11.892Z,13.20
2023-04-14T10:09:23.713Z,13.20
2023-04-14T10:13:34.577Z,13.00
2023-04-14T10:17:44.055Z,12.90
2023-04-14T10:21:54.736Z,12.80
2023-04-14T10:26:05.332Z,12.90
2023-04-14T10:30:17.193Z,13.10
2023-04-14T10:34:27.773Z,13.30
2023-04-14T10:38:42.532Z,13.30
2023-04-14T10:42:56.239Z,13.20
2023-04-14T10:47:08.711Z,13.10
2023-04-14T10:51:19.869Z,13.50
2023-04-14T10:55:30.051Z,13.90
2023-04-14T10:59:43.829Z,14.20
2023-04-14T11:03:56.322Z,14.30
2023-04-14T11:08:15.778Z,14.60
2023-04-14T11:12:26.437Z,14.60
2023-04-14T11:16:36.397Z,14.70
2023-04-14T11:20:48.332Z,14.60
2023-04-14T11:24:57.369Z,14.60
2023-04-14T11:29:10.194Z,14.70
2023-04-14T11:33:19.175Z,14.50
2023-04-14T11:37:31.273Z,14.70
2023-04-14T11:41:40.693Z,14.80
2023-04-14T11:45:51.344Z,14.80
2023-04-14T11:50:05.676Z,14.50
2023-04-14T11:54:16.570Z,14.70
2023-04-14T11:58:28.330Z,14.90
2023-04-14T12:02:38.261Z,14.90
2023-04-14T12:06:47.739Z,15.10
2023-04-14T12:10:59.056Z,14.80
2023-04-14T12:15:09.611Z,14.50
2023-04-14T12:19:18.919Z,14.30
2023-04-14T12:23:28.142Z,14.30
2023-04-14T12:27:39.088Z,14.30
2023-04-14T12:31:48.219Z,14.40
2023-04-14T12:36:03.379Z,14.60
2023-04-14T12:40:12.832Z,14.70
2023-04-14T12:44:24.682Z,14.80
2023-04-14T12:48:43.956Z,14.70
2023-04-14T12:52:54.232Z,14.50
2023-04-14T12:57:04.262Z,14.40
2023-04-14T13:01:17.390Z,14.50
2023-04-14T13:05:26.887Z,14.50
2023-04-14T13:09:36.070Z,14.50
2023-04-14T13:13:45.971Z,14.60
2023-04-14T13:17:56.785Z,14.70
2023-04-14T13:22:05.977Z,14.80
2023-04-14T13:26:15.008Z,14.70
2023-04-14T13:30:24.248Z,14.60
2023-04-14T13:34:34.736Z,14.40
2023-04-14T13:38:44.072Z,14.20
2023-04-14T13:42:54.452Z,14.10
2023-04-14T13:47:03.913Z,13.80
2023-04-14T13:51:14.579Z,13.60
2023-04-14T13:55:23.960Z,13.60
2023-04-14T13:59:33.412Z,13.60
2023-04-14T14:03:43.339Z,13.40
2023-04-14T14:07:53.893Z,13.50
2023-04-14T14:12:03.132Z,13.50
2023-04-14T14:16:13.182Z,13.60
2023-04-14T14:20:24.059Z,13.70
2023-04-14T14:24:35.078Z,13.90
2023-04-14T14:28:44.845Z,14.00
2023-04-14T14:32:53.947Z,14.00
2023-04-14T14:37:03.649Z,14.00
2023-04-14T14:41:14.409Z,13.90
2023-04-14T14:45:30.605Z,14.00
2023-04-14T14:49:48.952Z,13.90
2023-04-14T14:54:10.232Z,14.00
2023-04-14T14:58:21.761Z,14.00
2023-04-14T15:02:31.179Z,13.90
2023-04-14T15:06:40.349Z,13.90
2023-04-14T15:10:49.575Z,13.90
2023-04-14T15:15:01.119Z,13.80
2023-04-14T15:19:10.370Z,13.70
2023-04-14T15:23:19.538Z,13.70
2023-04-14T15:27:28.682Z,13.90
2023-04-14T15:31:39.302Z,14.00
2023-04-14T15:35:48.477Z,14.20
2023-04-14T15:39:57.806Z,14.20
2023-04-14T15:44:07.102Z,14.40
2023-04-14T15:48:17.911Z,14.40
2023-04-14T15:52:27.666Z,14.40
2023-04-14T15:56:37.206Z,14.30
2023-04-14T16:00:46.224Z,14.20
2023-04-14T16:04:58.282Z,14.20
2023-04-14T16:09:07.541Z,13.90
2023-04-14T16:13:17.316Z,13.90
2023-04-14T16:17:26.464Z,13.70
2023-04-14T16:21:37.072Z,13.50
2023-04-14T16:25:50.733Z,13.40
2023-04-14T16:29:59.934Z,13.10
2023-04-14T16:34:10.376Z,13.00
2023-04-14T16:38:21.037Z,13.00
2023-04-14T16:42:30.331Z,13.00
2023-04-14T16:46:39.586Z,12.90
2023-04-14T16:50:48.993Z,12.90
2023-04-14T16:54:59.957Z,12.80
2023-04-14T16:59:10.330Z,12.80
2023-04-14T17:03:19.880Z,12.80
2023-04-14T17:07:29.222Z,12.70
2023-04-14T17:11:39.945Z,12.60
2023-04-14T17:16:05.724Z,12.70
2023-04-14T17:20:18.050Z,12.60
2023-04-14T17:24:27.311Z,12.50
2023-04-14T17:28:38.963Z,12.40
2023-04-14T17:32:49.235Z,12.40
2023-04-14T17:36:59.689Z,12.30
2023-04-14T17:41:11.650Z,12.30
2023-04-14T17:45:24.505Z,12.30
2023-04-14T17:49:34.185Z,12.20
2023-04-14T17:53:43.372Z,12.20
2023-04-14T17:57:53.111Z,12.20
2023-04-14T18:02:04.248Z,12.10
2023-04-14T18:06:13.784Z,12.10
2023-04-14T18:10:22.875Z,12.00
2023-04-14T18:14:32.425Z,11.90
2023-04-14T18:18:43.627Z,11.90
2023-04-14T18:22:53.752Z,11.90
2023-04-14T18:28:02.870Z,11.80
2023-04-14T18:31:33.366Z,11.80
2023-04-14T18:35:44.126Z,11.80
2023-04-14T18:39:53.300Z,11.80
2023-04-14T18:44:03.690Z,11.60
2023-04-14T18:48:13.289Z,11.60
2023-04-14T18:52:23.974Z,11.60
2023-04-14T18:56:33.084Z,11.50
2023-04-14T19:00:43.447Z,11.30
2023-04-14T19:04:56.205Z,11.20
2023-04-14T19:09:07.254Z,11.30
2023-04-14T19:13:16.469Z,11.30
2023-04-14T19:17:25.940Z,11.20
2023-04-14T19:21:35.638Z,11.20
2023-04-14T19:25:46.308Z,11.20
2023-04-14T19:29:56.888Z,11.10
2023-04-14T19:34:06.091Z,11.10
2023-04-14T19:38:15.849Z,11.10
2023-04-14T19:42:26.546Z,11.10
2023-04-14T19:46:36.779Z,11.00
2023-04-14T19:50:51.013Z,11.00
2023-04-14T19:55:00.688Z,10.90
2023-04-14T19:59:11.506Z,10.90
2023-04-14T20:03:21.409Z,10.90
2023-04-14T20:07:30.665Z,10.80
2023-04-14T20:11:39.868Z,10.80
2023-04-14T20:15:51.151Z,10.80
2023-04-14T20:20:01.789Z,10.80
2023-04-14T20:24:11.032Z,10.70
2023-04-14T20:28:20.476Z,10.70
2023-04-14T20:32:31.734Z,10.60
2023-04-14T20:36:40.793Z,10.60
2023-04-14T20:40:50.053Z,10.60
2023-04-14T20:44:59.437Z,10.50
2023-04-14T20:49:13.362Z,10.40
2023-04-14T20:53:23.253Z,10.40
2023-04-14T20:57:33.152Z,10.30
2023-04-14T21:01:42.962Z,10.20
2023-04-14T21:05:53.967Z,10.10
2023-04-14T21:10:03.092Z,10.00
2023-04-14T21:15:44.003Z,10.00
2023-04-14T21:18:41.298Z,10.00
2023-04-14T21:22:52.544Z,9.90
2023-04-14T21:27:02.196Z,9.90
2023-04-14T21:31:11.604Z,9.80
2023-04-14T21:35:20.830Z,9.90
2023-04-14T21:39:33.388Z,9.80
2023-04-14T21:43:42.539Z,9.80
2023-04-14T21:47:51.829Z,9.80
2023-04-14T21:52:01.110Z,9.70
2023-04-14T21:56:13.150Z,9.70
2023-04-14T22:00:22.254Z,9.70
2023-04-14T22:04:36.301Z,9.70
2023-04-14T22:08:46.293Z,9.60
2023-04-14T22:12:56.873Z,9.50
2023-04-14T22:17:05.927Z,9.50
2023-04-14T22:21:16.129Z,9.40
2023-04-14T22:25:25.172Z,9.40
2023-04-14T22:29:35.773Z,9.30
2023-04-14T22:33:44.763Z,9.30
2023-04-14T22:37:53.913Z,9.20
2023-04-14T22:42:02.927Z,9.20
2023-04-14T22:46:13.924Z,9.20
2023-04-14T22:50:23.191Z,9.20
2023-04-14T22:54:33.092Z,9.10
2023-04-14T22:58:42.153Z,9.00
2023-04-14T23:02:54.093Z,9.10
2023-04-14T23:07:03.370Z,9.10
2023-04-14T23:11:12.532Z,9.00
2023-04-14T23:15:21.749Z,9.00
2023-04-14T23:19:33.405Z,9.00
2023-04-14T23:23:43.472Z,9.00
2023-04-14T23:27:52.654Z,8.90
2023-04-14T23:32:01.713Z,8.90
2023-04-14T23:36:12.787Z,9.00
2023-04-14T23:40:22.871Z,9.00
2023-04-14T23:44:31.911Z,8.90
2023-04-14T23:48:40.972Z,8.90
2023-04-14T23:52:51.590Z,8.90
2023-04-14T23:57:00.681Z,8.80
